Time;durP1;ratioP1;P1;durP2;ratioP2;P2;SDS_P1;SDS_P2;PMS_P1;PMS_P2;Temp;Humidity;BMP_temperature;BMP_pressure;BME280_temperature;BME280_humidity;BME280_pressure;Samples;Min_cycle;Max_cycle;Signal;HPM_P1;HPM_P2
2024/04/08 00:01:23;;;;;;;10.53;3.97;;;16.70;61.20;;;16.40;58.90;97421.28;5041514;28;20488;-77
2024/04/08 00:03:50;;;;;;;9.67;3.40;;;16.70;61.00;;;16.28;59.69;97429.72;5037164;28;20470;-76
2024/04/08 00:06:17;;;;;;;9.70;3.77;;;16.60;61.30;;;16.12;58.99;97436.19;5032388;28;20482;-77
2024/04/08 00:08:45;;;;;;;9.80;4.20;;;16.50;61.10;;;16.05;59.18;97438.31;5051759;28;20478;-77
2024/04/08 00:11:12;;;;;;;8.30;3.97;;;16.30;60.80;;;15.99;58.69;97421.13;5036267;28;20846;-78
2024/04/08 00:13:38;;;;;;;8.30;3.57;;;16.30;60.70;;;16.00;58.25;97403.72;5031467;28;20462;-76
2024/04/08 00:16:06;;;;;;;9.97;4.03;;;16.40;60.70;;;15.91;57.51;97367.16;5036845;28;20484;-76
2024/04/08 00:18:33;;;;;;;7.90;3.87;;;16.40;60.30;;;16.25;57.30;97426.69;5037164;28;20493;-77
2024/04/08 00:21:02;;;;;;;10.03;4.33;;;16.50;60.20;;;16.27;57.38;97419.06;5033585;28;20484;-76
2024/04/08 00:23:28;;;;;;;7.17;4.00;;;16.60;60.10;;;16.08;57.58;97410.56;5037227;28;20998;-77
2024/04/08 00:25:57;;;;;;;10.93;4.30;;;16.50;60.10;;;16.11;57.87;97410.81;5037915;28;20481;-77
2024/04/08 00:28:23;;;;;;;11.33;4.10;;;16.40;60.00;;;16.17;57.84;97410.88;5036630;28;20485;-77
2024/04/08 00:30:51;;;;;;;13.73;4.10;;;16.50;60.00;;;16.39;57.11;97408.75;5039068;28;20488;-77
2024/04/08 00:33:17;;;;;;;9.20;3.73;;;16.60;60.10;;;16.12;56.49;97349.78;5028501;28;21178;-76
2024/04/08 00:35:44;;;;;;;9.13;3.30;;;16.80;60.00;;;16.47;55.70;97387.50;5028731;28;21941;-76
2024/04/08 00:38:10;;;;;;;15.57;3.83;;;16.90;59.30;;;16.47;56.05;97398.41;5034612;28;20998;-77
2024/04/08 00:40:38;;;;;;;11.93;4.23;;;16.90;59.30;;;16.02;56.50;97387.91;5033519;28;20477;-77
2024/04/08 00:43:07;;;;;;;8.03;3.27;;;16.70;59.20;;;16.15;56.52;97402.94;5038414;28;20485;-75
2024/04/08 00:45:37;;;;;;;8.80;3.70;;;16.50;59.30;;;16.48;55.72;97397.34;5035046;28;20496;-77
2024/04/08 00:48:04;;;;;;;11.47;4.20;;;16.70;59.50;;;16.56;55.75;97402.25;5034857;28;20481;-77
2024/04/08 00:50:32;;;;;;;11.03;3.53;;;16.80;59.40;;;16.57;55.33;97387.50;5041436;28;20498;-76
2024/04/08 00:52:58;;;;;;;10.40;3.47;;;16.90;59.10;;;16.56;55.36;97385.88;5054143;28;20829;-77
2024/04/08 00:55:27;;;;;;;6.73;3.60;;;16.90;59.00;;;16.55;55.07;97387.81;5038514;28;20539;-76
2024/04/08 00:57:56;;;;;;;9.07;3.90;;;16.90;58.50;;;16.41;56.19;97392.94;5034859;28;20479;-76
2024/04/08 01:00:25;;;;;;;11.80;4.03;;;16.80;59.00;;;16.56;56.16;97391.34;5036789;28;20529;-75
2024/04/08 01:02:52;;;;;;;12.27;3.47;;;16.80;59.40;;;16.60;55.94;97381.50;5036890;28;20508;-77
2024/04/08 01:05:19;;;;;;;10.60;3.63;;;16.90;59.20;;;16.60;55.58;97376.06;5035894;28;20653;-77
2024/04/08 01:07:46;;;;;;;9.70;3.57;;;17.00;58.90;;;16.31;55.93;97387.47;5035700;28;20830;-77
2024/04/08 01:10:14;;;;;;;12.30;3.43;;;16.80;58.90;;;16.14;55.72;97380.31;5035708;28;20484;-78
2024/04/08 01:12:40;;;;;;;5.90;3.30;;;16.60;58.40;;;16.00;54.93;97395.53;5037889;28;20542;-79
2024/04/08 01:15:08;;;;;;;6.00;3.20;;;16.50;58.10;;;16.03;55.18;97395.00;5035864;28;20476;-77
2024/04/08 01:17:36;;;;;;;6.40;3.37;;;16.50;58.00;;;16.09;55.01;97402.09;5040958;28;20482;-80
2024/04/08 01:20:04;;;;;;;13.40;2.90;;;16.50;58.20;;;16.29;53.74;97408.69;5040498;28;20513;-75
2024/04/08 01:22:32;;;;;;;5.20;2.70;;;16.60;57.70;;;16.49;54.45;97397.03;5034533;28;20841;-75
2024/04/08 01:25:04;;;;;;;11.33;3.60;;;16.70;58.10;;;16.53;55.56;97387.25;5051233;28;20473;-78
2024/04/08 01:27:30;;;;;;;6.43;2.40;;;16.90;58.90;;;16.73;53.21;97406.63;5035983;28;20473;-78
2024/04/08 01:29:57;;;;;;;8.93;3.03;;;16.90;58.00;;;16.68;52.22;97410.16;5037698;28;20477;-76
2024/04/08 01:32:24;;;;;;;7.00;3.13;;;17.00;57.20;;;16.62;52.32;97400.34;5041221;28;20465;-76
2024/04/08 01:34:51;;;;;;;9.73;2.73;;;16.90;56.90;;;16.60;52.45;97397.88;5043255;28;20487;-77
2024/04/08 01:37:18;;;;;;;7.10;3.27;;;16.90;56.90;;;16.57;52.74;97387.50;5045635;28;20515;-77
2024/04/08 01:39:45;;;;;;;7.20;2.80;;;16.90;57.20;;;16.47;52.48;97396.50;5038910;28;20593;-75
2024/04/08 01:42:13;;;;;;;11.63;3.37;;;16.80;56.80;;;16.90;51.96;97390.81;5033929;28;20487;-75
2024/04/08 01:44:40;;;;;;;8.87;3.57;;;17.00;57.20;;;16.87;52.79;97385.91;5031928;28;20485;-76
2024/04/08 01:47:06;;;;;;;9.67;3.60;;;17.10;57.60;;;16.79;54.45;97376.38;5034228;28;20477;-77
2024/04/08 01:49:33;;;;;;;12.80;3.30;;;17.10;58.30;;;16.74;54.39;97370.09;5039691;28;20501;-77
2024/04/08 01:52:00;;;;;;;8.57;3.13;;;17.10;58.30;;;16.50;54.76;97381.53;5046044;28;21008;-77
2024/04/08 01:54:27;;;;;;;7.27;3.07;;;16.90;58.20;;;16.34;54.32;97389.66;5036949;28;20474;-76
2024/04/08 01:56:53;;;;;;;12.37;2.93;;;16.70;57.60;;;16.30;52.86;97418.50;5038886;28;21380;-79
2024/04/08 01:59:22;;;;;;;10.80;3.20;;;16.60;57.00;;;16.56;51.86;97475.88;5037543;28;20495;-76
2024/04/08 02:01:48;;;;;;;6.90;3.50;;;16.90;56.60;;;16.57;54.39;97478.34;5040027;28;20477;-77
2024/04/08 02:04:15;;;;;;;13.50;4.90;;;17.10;57.70;;;16.30;55.64;97453.94;5040210;28;21167;-75
2024/04/08 02:06:42;;;;;;;8.50;3.23;;;16.90;58.40;;;16.22;55.94;97446.31;5040369;28;20489;-77
2024/04/08 02:09:09;;;;;;;7.60;3.93;;;16.70;58.50;;;15.57;56.60;97395.56;5059096;28;20527;-76
2024/04/08 02:11:35;;;;;;;9.30;4.00;;;16.60;58.90;;;15.82;57.18;97484.75;5038787;28;20477;-77
2024/04/08 02:14:03;;;;;;;8.23;3.70;;;16.50;59.10;;;15.85;57.09;97476.06;5030125;28;20474;-76
2024/04/08 02:16:31;;;;;;;9.43;3.70;;;16.40;59.00;;;15.93;57.42;97427.66;5039515;28;20482;-76
2024/04/08 02:18:58;;;;;;;11.10;3.93;;;16.40;59.30;;;15.63;56.60;97413.56;5031609;28;20490;-75
2024/04/08 02:21:25;;;;;;;11.23;4.00;;;16.50;58.80;;;15.94;56.44;97492.78;5032994;28;20493;-76
2024/04/08 02:23:52;;;;;;;7.13;3.70;;;16.40;58.60;;;16.13;56.21;97454.97;5032961;28;20476;-77
2024/04/08 02:26:18;;;;;;;10.33;4.07;;;16.60;58.70;;;16.10;56.18;97466.41;5041603;28;20493;-76
2024/04/08 02:28:46;;;;;;;8.67;3.53;;;16.50;58.60;;;15.99;56.89;97460.09;5036995;28;20490;-77
2024/04/08 02:31:12;;;;;;;9.03;3.43;;;16.40;58.90;;;15.71;58.84;97425.88;5036860;28;20485;-76
2024/04/08 02:33:41;;;;;;;7.03;3.23;;;16.40;59.80;;;15.77;58.42;97443.88;5046133;28;20469;-77
2024/04/08 02:36:07;;;;;;;7.07;4.40;;;16.30;59.50;;;15.56;57.49;97381.13;5044125;28;20483;-76
2024/04/08 02:38:35;;;;;;;10.00;3.73;;;16.30;59.50;;;15.74;57.78;97430.78;5045927;28;20988;-77
2024/04/08 02:41:01;;;;;;;6.20;3.20;;;16.20;59.50;;;15.58;58.32;97427.97;5047813;28;20477;-77
2024/04/08 02:43:28;;;;;;;8.33;4.03;;;16.10;59.40;;;15.51;58.09;97410.22;5043648;28;20473;-76
2024/04/08 02:45:55;;;;;;;7.73;3.63;;;16.00;59.70;;;15.71;58.24;97414.97;5049188;28;21005;-78
2024/04/08 02:48:23;;;;;;;9.00;3.70;;;16.00;59.70;;;15.81;57.80;97420.47;5041693;28;20508;-77
2024/04/08 02:50:51;;;;;;;8.83;3.80;;;16.20;59.70;;;15.62;58.92;97425.56;5044669;28;20564;-78
2024/04/08 02:53:19;;;;;;;11.80;3.50;;;16.00;59.90;;;15.38;58.79;97401.44;5046475;28;20573;-77
2024/04/08 02:55:45;;;;;;;8.47;4.00;;;15.90;59.80;;;15.38;59.78;97425.09;5039089;28;20476;-76
2024/04/08 02:58:12;;;;;;;7.40;4.70;;;15.80;60.20;;;15.06;60.02;97406.91;5041280;28;20476;-76
2024/04/08 03:00:39;;;;;;;7.77;3.60;;;15.60;60.40;;;15.26;61.83;97422.56;5044265;28;20485;-76
2024/04/08 03:03:07;;;;;;;6.40;3.90;;;15.50;61.40;;;14.83;62.01;97324.59;5036855;28;20522;-76
2024/04/08 03:05:34;;;;;;;6.90;3.53;;;15.70;62.00;;;15.41;60.85;97405.53;5034356;28;20469;-77
2024/04/08 03:08:03;;;;;;;8.10;3.20;;;15.80;61.30;;;15.37;60.52;97421.56;5042305;28;20555;-77
2024/04/08 03:10:30;;;;;;;7.50;3.80;;;15.70;60.80;;;15.35;59.71;97412.00;5036215;28;22318;-77
2024/04/08 03:12:57;;;;;;;8.63;4.10;;;15.70;60.70;;;15.29;60.09;97425.59;5036378;28;20488;-77
2024/04/08 03:15:23;;;;;;;11.27;3.80;;;15.60;60.70;;;15.34;60.69;97432.16;5031548;28;20474;-79
2024/04/08 03:17:51;;;;;;;8.47;4.20;;;15.60;61.10;;;15.35;61.35;97428.34;5037324;28;20967;-76
2024/04/08 03:20:17;;;;;;;8.80;4.20;;;15.60;61.60;;;15.30;61.02;97420.94;5042267;28;20516;-76
2024/04/08 03:22:45;;;;;;;12.33;4.03;;;15.60;61.60;;;15.37;60.57;97427.00;5039664;28;20489;-78
2024/04/08 03:25:12;;;;;;;14.43;4.30;;;15.70;61.50;;;15.21;60.45;97439.66;5041298;28;20481;-77
2024/04/08 03:27:41;;;;;;;10.17;4.37;;;15.60;61.20;;;15.14;60.38;97439.88;5042033;28;20961;-77
2024/04/08 03:30:08;;;;;;;7.90;4.03;;;15.50;61.10;;;15.18;60.63;97437.47;5035733;28;20685;-78
2024/04/08 03:32:36;;;;;;;13.20;3.77;;;15.40;61.40;;;15.43;59.37;97433.31;5036630;28;20477;-78
2024/04/08 03:35:02;;;;;;;7.53;3.70;;;15.60;60.70;;;15.48;58.95;97436.06;5038552;28;20481;-78
2024/04/08 03:37:30;;;;;;;12.27;4.00;;;15.70;60.50;;;15.27;59.59;97444.09;5040695;28;20516;-78
2024/04/08 03:39:57;;;;;;;11.03;3.53;;;15.70;60.50;;;15.12;60.61;97443.97;5026850;28;21473;-77
2024/04/08 03:42:26;;;;;;;9.60;4.17;;;15.50;61.00;;;15.02;61.26;97441.97;5038835;28;20476;-78
2024/04/08 03:44:54;;;;;;;6.67;3.43;;;15.40;61.30;;;15.12;61.13;97435.81;5041946;28;20493;-77
2024/04/08 03:47:21;;;;;;;9.27;4.20;;;15.40;61.50;;;15.00;61.56;97446.81;5039920;28;20484;-77
2024/04/08 03:49:53;;;;;;;7.43;4.23;;;15.30;61.40;;;14.94;61.97;97440.56;5031811;28;20466;-76
2024/04/08 03:52:20;;;;;;;11.37;3.80;;;15.30;61.90;;;15.01;62.54;97441.16;5040414;28;20982;-77
2024/04/08 03:54:47;;;;;;;10.27;3.57;;;15.20;62.10;;;15.04;62.77;97438.97;5043486;28;20492;-76
2024/04/08 03:57:13;;;;;;;10.93;4.83;;;15.30;62.50;;;15.04;62.04;97436.25;5042676;28;20578;-78
2024/04/08 03:59:46;;;;;;;7.57;4.00;;;15.40;62.10;;;15.06;61.91;97436.81;5034850;28;20496;-79
2024/04/08 04:02:12;;;;;;;7.23;4.33;;;15.40;62.00;;;15.13;61.71;97437.44;5050588;28;20569;-76
2024/04/08 04:04:39;;;;;;;9.20;4.70;;;15.40;62.10;;;15.12;61.78;97414.03;5037896;28;20506;-78
2024/04/08 04:07:06;;;;;;;10.07;4.40;;;15.40;62.10;;;15.24;61.02;97427.44;5034012;28;21219;-75
2024/04/08 04:09:33;;;;;;;9.17;4.17;;;15.50;61.80;;;14.84;61.60;97413.25;5028299;28;20556;-77
2024/04/08 04:12:00;;;;;;;11.23;3.60;;;15.40;61.70;;;14.62;62.80;97405.94;5046745;28;20558;-77
2024/04/08 04:14:27;;;;;;;11.70;4.17;;;15.20;62.10;;;14.69;63.10;97444.63;5039913;28;20482;-76
2024/04/08 04:16:54;;;;;;;8.40;4.37;;;15.10;62.20;;;14.62;63.19;97446.69;5054839;28;20847;-77
2024/04/08 04:19:22;;;;;;;11.87;4.07;;;15.00;62.30;;;14.56;63.12;97429.53;5054989;28;21086;-75
2024/04/08 04:21:48;;;;;;;9.77;3.63;;;14.90;62.50;;;14.85;62.58;97433.94;5037791;28;20481;-76
2024/04/08 04:24:15;;;;;;;7.20;3.80;;;15.00;62.60;;;14.91;62.40;97446.47;5040398;28;20498;-77
2024/04/08 04:26:41;;;;;;;8.00;3.47;;;15.20;62.40;;;14.84;62.87;97443.16;5037367;28;20527;-76
2024/04/08 04:29:08;;;;;;;8.97;3.60;;;15.20;62.50;;;14.81;63.11;97440.97;5036251;28;20571;-76
2024/04/08 04:31:43;;;;;;;10.60;3.50;;;15.20;62.80;;;14.75;63.79;97447.41;5037725;28;20477;-78
2024/04/08 04:34:11;;;;;;;8.53;3.83;;;15.10;62.80;;;14.21;64.24;97400.06;5035854;28;20511;-76
2024/04/08 04:36:37;;;;;;;10.70;4.40;;;15.00;62.90;;;14.50;64.57;97455.00;5037287;28;20472;-77
2024/04/08 04:39:05;;;;;;;7.03;3.40;;;15.00;63.20;;;14.58;67.10;97454.56;5036533;28;20910;-75
2024/04/08 04:41:31;;;;;;;7.70;3.70;;;15.00;64.40;;;14.73;65.90;97451.22;5036072;28;20885;-75
2024/04/08 04:43:59;;;;;;;8.33;3.87;;;15.20;65.30;;;14.96;63.30;97449.25;5035229;28;20841;-73
2024/04/08 04:46:25;;;;;;;7.50;3.90;;;15.30;63.60;;;14.96;63.06;97462.03;5039206;28;20470;-76
2024/04/08 04:48:52;;;;;;;9.23;4.07;;;15.30;63.10;;;14.92;62.73;97460.91;5023500;28;20505;-76
2024/04/08 04:51:20;;;;;;;5.30;3.50;;;15.30;63.10;;;14.88;63.24;97463.31;5036235;28;20906;-75
2024/04/08 04:53:47;;;;;;;8.53;3.53;;;15.30;63.20;;;14.85;63.17;97456.47;5033478;28;21006;-75
2024/04/08 04:56:13;;;;;;;5.93;4.53;;;15.30;63.20;;;14.82;63.10;97458.91;5041071;28;20958;-74
2024/04/08 04:58:40;;;;;;;7.60;4.07;;;15.20;63.20;;;14.83;63.32;97476.88;5023343;28;20470;-77
2024/04/08 05:01:07;;;;;;;5.80;3.77;;;15.30;63.30;;;14.81;63.26;97474.41;5030930;28;20476;-75
2024/04/08 05:03:34;;;;;;;8.80;4.17;;;15.20;63.20;;;14.79;62.65;97479.28;5034332;28;20823;-74
2024/04/08 05:06:01;;;;;;;7.80;3.90;;;15.20;62.90;;;15.20;61.42;97475.31;5033526;28;21153;-79
2024/04/08 05:08:30;;;;;;;8.97;4.33;;;15.40;62.70;;;15.28;60.99;97483.81;5024227;28;20477;-80
2024/04/08 05:10:56;;;;;;;7.50;4.23;;;15.60;62.40;;;15.08;61.44;97483.63;5028262;28;20481;-76
2024/04/08 05:13:25;;;;;;;5.80;3.50;;;15.60;62.40;;;15.12;61.30;97484.78;5032385;28;20969;-79
2024/04/08 05:15:55;;;;;;;8.47;5.50;;;15.50;62.40;;;15.36;61.14;97481.69;5042649;28;20480;-83
2024/04/08 05:18:23;;;;;;;11.73;3.97;;;15.60;62.40;;;15.23;61.30;97486.47;5035907;28;20477;-80
2024/04/08 05:20:50;;;;;;;10.27;4.30;;;15.60;62.50;;;15.20;62.20;97487.00;5040133;28;20492;-79
2024/04/08 05:23:20;;;;;;;5.67;4.23;;;15.50;62.90;;;15.18;62.18;97494.59;5043984;28;20998;-81
2024/04/08 05:25:48;;;;;;;10.17;4.37;;;15.50;62.80;;;15.26;61.27;97486.00;5046993;28;20980;-80
2024/04/08 05:28:15;;;;;;;9.57;4.60;;;15.60;62.90;;;15.34;61.50;97490.13;5040645;28;20479;-79
2024/04/08 05:30:41;;;;;;;14.27;4.80;;;15.70;62.90;;;15.31;61.75;97474.31;5054957;28;20493;-82
2024/04/08 05:33:09;;;;;;;10.87;4.53;;;15.70;63.00;;;15.62;61.15;97490.06;5042663;28;20557;-81
2024/04/08 05:35:36;;;;;;;7.90;4.40;;;15.80;63.10;;;15.66;60.75;97483.00;5042802;28;20954;-80
2024/04/08 05:38:04;;;;;;;7.47;4.30;;;16.00;62.80;;;15.80;60.20;97488.84;5043723;28;20477;-76
2024/04/08 05:40:34;;;;;;;9.17;4.30;;;16.10;62.40;;;15.85;59.28;97476.06;5047965;28;20520;-73
2024/04/08 05:43:03;;;;;;;10.93;4.40;;;16.20;62.10;;;15.85;59.19;97486.97;5045291;28;20484;-85
2024/04/08 05:45:30;;;;;;;11.87;5.10;;;16.20;61.70;;;15.86;59.26;97482.31;5037714;28;20515;-74
2024/04/08 05:47:57;;;;;;;13.60;5.63;;;16.30;61.70;;;16.05;58.49;97485.47;5044442;28;20846;-72
2024/04/08 05:50:24;;;;;;;9.43;5.40;;;16.40;61.60;;;16.04;58.17;97483.81;5044297;28;20477;-73
2024/04/08 05:52:51;;;;;;;6.50;4.43;;;16.50;61.20;;;16.17;57.70;97487.97;5041951;28;20807;-73
2024/04/08 05:55:18;;;;;;;10.93;4.53;;;16.50;61.10;;;16.24;57.76;97482.28;5038541;28;20489;-74
2024/04/08 05:57:45;;;;;;;11.90;4.77;;;16.60;61.10;;;16.30;57.35;97489.38;5043499;28;20960;-74
2024/04/08 06:00:16;;;;;;;10.50;4.70;;;16.60;60.80;;;16.31;57.46;97485.59;5058630;28;20500;-76
2024/04/08 06:02:44;;;;;;;14.63;4.20;;;16.70;60.80;;;16.40;57.31;97496.81;5040642;28;20566;-74
2024/04/08 06:05:10;;;;;;;11.30;4.50;;;16.70;61.00;;;16.38;57.20;97493.53;5037244;28;20584;-78
2024/04/08 06:07:38;;;;;;;7.07;3.90;;;16.80;60.80;;;16.66;56.39;97511.34;5040824;28;20857;-77
2024/04/08 06:10:05;;;;;;;8.60;4.70;;;16.90;60.80;;;16.65;56.29;97504.25;5040270;28;20481;-71
2024/04/08 06:12:32;;;;;;;14.30;4.40;;;16.90;60.60;;;16.60;56.51;97517.84;5034958;28;21005;-73
2024/04/08 06:14:59;;;;;;;6.80;4.33;;;16.90;60.60;;;16.67;56.60;97518.44;5036706;28;20474;-74
2024/04/08 06:17:27;;;;;;;7.83;4.60;;;17.00;60.80;;;16.65;57.40;97517.91;5038082;28;20480;-70
2024/04/08 06:19:54;;;;;;;10.97;5.03;;;17.00;61.00;;;16.72;57.05;97514.94;5036301;28;20489;-70
2024/04/08 06:22:21;;;;;;;9.93;4.77;;;17.10;61.10;;;16.92;56.61;97519.63;5037006;28;20570;-71
2024/04/08 06:24:47;;;;;;;9.10;4.20;;;17.20;60.90;;;16.92;56.54;97516.06;5036542;28;20477;-71
2024/04/08 06:27:14;;;;;;;9.30;4.30;;;17.20;60.90;;;16.84;56.74;97522.88;5040297;28;21094;-71
2024/04/08 06:29:41;;;;;;;11.13;5.33;;;17.20;60.80;;;16.87;56.59;97511.41;5030579;28;20485;-72
2024/04/08 06:32:08;;;;;;;10.90;4.40;;;17.30;60.80;;;16.85;56.37;97510.84;5037991;28;20491;-71
2024/04/08 06:34:35;;;;;;;9.67;4.03;;;17.30;60.50;;;16.99;56.05;97506.56;5038402;28;20820;-72
2024/04/08 06:37:03;;;;;;;10.73;4.67;;;17.40;60.50;;;17.11;55.97;97513.69;5041132;28;20536;-71
2024/04/08 06:39:29;;;;;;;6.83;4.80;;;17.50;60.50;;;17.35;55.33;97510.41;5038791;28;20526;-72
2024/04/08 06:41:57;;;;;;;7.90;3.87;;;17.70;60.40;;;17.70;54.22;97506.06;5040194;28;20959;-72
2024/04/08 06:44:23;;;;;;;17.27;4.60;;;18.00;60.20;;;18.09;53.17;97505.47;5032344;28;20588;-83
2024/04/08 06:46:50;;;;;;;7.43;3.97;;;18.30;59.90;;;18.28;52.48;97504.88;5031638;28;20489;-81
2024/04/08 06:49:17;;;;;;;9.63;4.13;;;18.50;59.40;;;18.25;52.27;97505.41;5036062;28;20800;-81
2024/04/08 06:51:45;;;;;;;8.63;4.30;;;18.60;59.20;;;18.81;51.24;97511.75;5032533;28;20473;-80
2024/04/08 06:54:12;;;;;;;13.33;5.20;;;18.90;59.10;;;18.79;50.52;97509.28;5036186;28;20484;-81
2024/04/08 06:56:39;;;;;;;8.73;4.50;;;19.20;58.60;;;18.90;51.09;97504.59;5041156;28;20489;-82
2024/04/08 06:59:06;;;;;;;10.37;4.40;;;19.30;58.70;;;19.22;49.65;97511.56;5038823;28;20477;-82
2024/04/08 07:01:33;;;;;;;11.30;4.13;;;19.60;58.30;;;19.18;50.25;97505.00;5038058;28;20485;-81
2024/04/08 07:03:59;;;;;;;9.60;4.50;;;19.70;58.30;;;19.11;50.16;97520.94;5033147;28;20481;-80
2024/04/08 07:06:27;;;;;;;16.03;4.57;;;19.70;58.00;;;19.31;49.40;97519.16;5041382;28;20566;-82
2024/04/08 07:08:54;;;;;;;8.10;4.40;;;19.70;58.00;;;19.15;49.64;97508.31;5046420;28;20461;-81
2024/04/08 07:11:22;;;;;;;16.37;4.40;;;19.70;57.70;;;19.07;50.30;97511.66;5038714;28;20477;-79
2024/04/08 07:13:48;;;;;;;7.83;4.50;;;19.60;58.00;;;19.25;49.80;97524.66;5039967;28;20469;-80
2024/04/08 07:16:16;;;;;;;10.37;4.30;;;19.60;58.10;;;19.58;48.89;97517.84;5044981;28;20485;-79
2024/04/08 07:18:42;;;;;;;10.67;4.23;;;19.70;57.80;;;19.87;48.47;97522.53;5035897;28;21012;-81
2024/04/08 07:21:10;;;;;;;6.07;3.80;;;20.00;57.80;;;19.77;48.78;97523.44;5054104;28;20496;-80
2024/04/08 07:23:36;;;;;;;8.20;4.30;;;20.10;57.60;;;19.96;47.93;97527.13;5027362;28;20488;-80
2024/04/08 07:26:05;;;;;;;12.73;4.30;;;20.30;57.20;;;20.33;47.06;97513.88;5057262;28;21125;-81
2024/04/08 07:28:31;;;;;;;8.13;4.20;;;20.60;57.00;;;19.87;46.97;97470.47;5035420;28;20476;-83
2024/04/08 07:30:58;;;;;;;7.90;4.07;;;20.60;56.90;;;20.01;47.86;97512.56;5034554;28;20554;-80
2024/04/08 07:33:25;;;;;;;7.80;3.93;;;20.50;56.90;;;19.97;47.29;97517.00;5036084;28;21030;-79
2024/04/08 07:35:52;;;;;;;9.43;3.17;;;20.30;56.70;;;19.96;47.45;97515.34;5054408;28;20443;-85
2024/04/08 07:38:18;;;;;;;9.00;3.80;;;20.40;56.70;;;20.15;47.19;97509.13;5041924;28;20225;-87
2024/04/08 07:40:45;;;;;;;5.83;3.40;;;20.50;56.50;;;19.95;47.22;97505.50;5036363;28;20578;-85
2024/04/08 07:43:13;;;;;;;7.03;3.03;;;20.40;56.30;;;19.84;47.53;97503.94;5042396;28;20469;-86
2024/04/08 07:45:40;;;;;;;7.60;3.70;;;20.30;56.30;;;20.32;46.60;97503.16;5030556;28;20499;-82
2024/04/08 07:48:08;;;;;;;7.33;3.20;;;20.60;56.40;;;20.68;45.80;97489.03;5027933;28;20884;-83
2024/04/08 07:50:38;;;;;;;6.43;3.80;;;20.90;56.10;;;20.45;46.34;97485.19;5045733;28;20489;-83
2024/04/08 07:53:05;;;;;;;10.60;3.03;;;21.00;56.10;;;20.86;46.08;97490.19;5039618;28;20484;-71
2024/04/08 07:55:32;;;;;;;6.00;3.30;;;21.10;56.40;;;20.92;45.87;97490.91;5034988;28;20489;-73
2024/04/08 07:57:58;;;;;;;7.83;3.87;;;21.30;56.30;;;20.87;45.64;97491.00;5033419;28;20937;-72
2024/04/08 08:00:27;;;;;;;9.40;3.47;;;21.30;56.10;;;20.74;46.60;97490.56;5037158;28;20496;-73
2024/04/08 08:02:53;;;;;;;9.67;3.70;;;21.10;56.50;;;20.93;46.18;97490.63;5039112;28;20492;-72
2024/04/08 08:05:21;;;;;;;7.77;3.37;;;21.10;56.50;;;21.13;45.57;97488.69;5039960;28;20478;-72
2024/04/08 08:07:47;;;;;;;8.77;3.60;;;21.30;56.30;;;21.45;45.02;97494.53;5033968;28;20554;-72
2024/04/08 08:10:15;;;;;;;6.47;3.30;;;21.60;56.20;;;21.42;44.67;97484.16;5039596;28;20477;-72
2024/04/08 08:12:42;;;;;;;5.40;3.13;;;21.80;55.80;;;22.12;43.21;97500.84;5038059;28;20484;-71
2024/04/08 08:15:09;;;;;;;6.20;3.40;;;22.20;55.60;;;22.41;42.22;97499.72;5037763;28;20510;-72
2024/04/08 08:17:40;;;;;;;7.60;2.90;;;22.70;55.10;;;22.52;41.79;97498.44;5040948;28;20519;-72
2024/04/08 08:20:09;;;;;;;8.43;3.13;;;22.80;54.50;;;22.58;41.38;97491.69;5040667;28;20496;-71
2024/04/08 08:22:36;;;;;;;6.70;2.40;;;23.00;54.40;;;22.25;41.40;97486.28;5044447;28;20784;-71
2024/04/08 08:25:04;;;;;;;6.00;2.87;;;22.90;53.70;;;22.57;41.29;97497.50;5041715;28;20888;-71
2024/04/08 08:27:31;;;;;;;6.60;2.93;;;23.00;54.00;;;22.85;40.66;97502.97;5045372;28;20566;-70
2024/04/08 08:29:58;;;;;;;6.70;3.60;;;23.20;53.80;;;22.96;40.32;97506.28;5055702;28;20471;-70
2024/04/08 08:32:26;;;;;;;6.80;3.07;;;23.30;53.40;;;23.29;39.56;97504.19;5040358;28;20482;-73
2024/04/08 08:34:54;;;;;;;9.70;2.87;;;23.40;53.40;;;23.27;39.59;97500.13;5041621;28;20482;-70
2024/04/08 08:37:21;;;;;;;4.00;3.20;;;23.50;53.30;;;23.21;39.51;97497.47;5041156;28;20481;-72
2024/04/08 08:39:50;;;;;;;6.60;3.13;;;23.60;53.00;;;23.24;39.05;97489.69;5037843;28;21016;-71
2024/04/08 08:42:19;;;;;;;4.77;2.70;;;23.60;52.60;;;23.67;38.13;97499.47;5041262;28;20484;-71
2024/04/08 08:44:52;;;;;;;13.33;3.33;;;23.80;52.50;;;24.00;38.22;97493.63;5039253;28;20568;-71
2024/04/08 08:47:22;;;;;;;5.63;2.70;;;24.00;52.60;;;23.94;37.67;97495.72;5039853;28;20469;-71
2024/04/08 08:49:53;;;;;;;3.67;2.80;;;24.20;52.00;;;23.65;37.19;97444.63;5054247;28;20595;-71
2024/04/08 08:52:21;;;;;;;8.63;3.60;;;24.20;51.80;;;24.18;37.33;97500.06;5043384;28;20587;-72
2024/04/08 08:54:51;;;;;;;7.57;3.17;;;24.20;51.70;;;24.23;37.37;97497.19;5026886;28;21267;-72
2024/04/08 08:57:18;;;;;;;6.80;3.53;;;24.30;52.10;;;24.14;37.15;97486.09;5040997;28;20476;-71
2024/04/08 08:59:46;;;;;;;6.10;2.90;;;24.40;51.70;;;24.67;36.45;97485.47;5045264;28;20674;-69
2024/04/08 09:02:14;;;;;;;5.60;2.70;;;24.60;51.60;;;24.46;36.82;97488.81;5041848;28;21042;-72
2024/04/08 09:04:41;;;;;;;6.10;2.70;;;24.70;51.30;;;24.02;37.01;97447.22;5042687;28;20564;-75
2024/04/08 09:07:10;;;;;;;8.53;3.23;;;24.60;51.30;;;24.43;36.62;97479.22;5042817;28;20496;-76
2024/04/08 09:09:36;;;;;;;11.37;2.90;;;24.70;51.10;;;24.21;36.01;97460.81;5044591;28;20482;-72
2024/04/08 09:12:05;;;;;;;6.70;3.27;;;24.60;50.60;;;24.42;36.66;97454.69;5042653;28;20487;-71
2024/04/08 09:14:31;;;;;;;9.00;2.87;;;24.70;50.90;;;23.83;37.67;97477.78;5036105;28;20484;-72
2024/04/08 09:17:07;;;;;;;10.40;3.77;;;24.40;51.20;;;23.58;37.62;97474.56;5039290;28;20530;-71
2024/04/08 09:19:33;;;;;;;8.30;4.50;;;24.00;51.10;;;23.76;37.61;97473.56;5041590;28;20488;-70
2024/04/08 09:22:00;;;;;;;9.80;3.10;;;24.00;51.00;;;23.48;37.05;97464.59;5053326;28;20502;-70
2024/04/08 09:24:30;;;;;;;11.27;2.83;;;24.00;50.60;;;23.58;37.67;97460.78;5040669;28;20501;-71
2024/04/08 09:26:58;;;;;;;6.67;2.70;;;23.90;50.70;;;23.56;36.02;97460.28;5039907;28;21016;-71
2024/04/08 09:29:27;;;;;;;9.30;3.30;;;23.90;49.50;;;23.99;36.12;97454.19;5042177;28;20476;-71
2024/04/08 09:31:58;;;;;;;8.00;2.97;;;24.10;50.00;;;24.29;36.06;97457.25;5040078;28;20987;-69
2024/04/08 09:34:25;;;;;;;5.87;2.10;;;24.30;50.10;;;24.46;35.94;97450.16;5059839;28;20922;-70
2024/04/08 09:36:54;;;;;;;7.90;2.90;;;24.50;50.10;;;24.51;35.77;97444.50;5039051;28;20484;-71
2024/04/08 09:39:22;;;;;;;7.60;3.20;;;24.80;50.20;;;24.62;35.25;97448.56;5041561;28;20491;-72
2024/04/08 09:41:53;;;;;;;7.10;2.30;;;24.80;49.90;;;24.37;35.55;97441.06;5046053;28;20490;-70
2024/04/08 09:44:20;;;;;;;8.90;2.90;;;24.80;49.60;;;24.50;35.44;97445.63;5041206;28;20822;-69
2024/04/08 09:46:51;;;;;;;4.03;2.70;;;24.80;49.80;;;24.69;35.58;97447.28;5035408;28;20477;-70
2024/04/08 09:49:19;;;;;;;7.97;2.80;;;24.90;50.00;;;24.57;35.71;97448.72;5055915;28;20538;-71
2024/04/08 09:51:48;;;;;;;7.00;2.90;;;24.90;50.00;;;25.11;34.66;97444.09;5043973;28;20884;-70
2024/04/08 09:54:14;;;;;;;10.37;3.10;;;25.10;49.70;;;25.01;34.75;97436.94;5043217;28;20587;-72
2024/04/08 09:56:45;;;;;;;10.10;2.80;;;25.20;49.50;;;25.32;34.20;97444.25;5041626;28;20485;-70
2024/04/08 09:59:19;;;;;;;8.57;3.10;;;25.30;49.50;;;24.46;33.83;97436.34;5036050;28;20505;-70
2024/04/08 10:01:50;;;;;;;8.17;2.50;;;25.00;48.40;;;24.33;34.17;97430.63;5033588;28;21963;-71
2024/04/08 10:04:20;;;;;;;8.60;3.00;;;24.80;48.20;;;24.73;33.93;97428.94;5040136;28;20905;-71
2024/04/08 10:06:50;;;;;;;12.30;3.03;;;24.90;48.60;;;24.98;32.75;97423.78;5042526;28;20822;-70
2024/04/08 10:09:17;;;;;;;10.73;2.70;;;25.10;47.70;;;25.10;31.66;97429.47;5042798;28;20482;-70
2024/04/08 10:11:46;;;;;;;8.70;3.07;;;25.20;46.50;;;25.04;31.71;97428.81;5036148;28;20627;-70
2024/04/08 10:14:19;;;;;;;8.53;2.37;;;25.20;46.80;;;25.21;31.77;97415.31;5038081;28;20561;-70
2024/04/08 10:16:48;;;;;;;7.43;2.50;;;25.40;47.00;;;24.96;30.97;97370.81;5040742;28;20816;-70
2024/04/08 10:19:16;;;;;;;5.60;2.33;;;25.50;46.30;;;25.49;30.40;97412.19;5037448;28;20474;-69